sensor_id;sensor_type;location;lat;lon;timestamp;P1;durP1;ratioP1;P2;durP2;ratioP2
45476;SDS011;31958;51.756;-2.556;2024-01-30T00:01:53;5.25;;;1.70;;
45476;SDS011;31958;51.756;-2.556;2024-01-30T00:04:18;4.00;;;2.10;;
45476;SDS011;31958;51.756;-2.556;2024-01-30T00:06:44;6.78;;;1.90;;
45476;SDS011;31958;51.756;-2.556;2024-01-30T00:09:10;4.10;;;1.80;;
45476;SDS011;31958;51.756;-2.556;2024-01-30T00:11:36;4.55;;;1.35;;
45476;SDS011;31958;51.756;-2.556;2024-01-30T00:14:01;4.55;;;1.67;;
45476;SDS011;31958;51.756;-2.556;2024-01-30T00:16:28;2.10;;;1.33;;
45476;SDS011;31958;51.756;-2.556;2024-01-30T00:18:53;2.75;;;1.17;;
45476;SDS011;31958;51.756;-2.556;2024-01-30T00:21:19;3.90;;;1.50;;
45476;SDS011;31958;51.756;-2.556;2024-01-30T00:23:45;4.93;;;1.20;;
45476;SDS011;31958;51.756;-2.556;2024-01-30T00:26:10;3.42;;;1.10;;
45476;SDS011;31958;51.756;-2.556;2024-01-30T00:28:36;4.03;;;1.30;;
45476;SDS011;31958;51.756;-2.556;2024-01-30T00:31:02;3.85;;;1.40;;
45476;SDS011;31958;51.756;-2.556;2024-01-30T00:33:28;2.80;;;1.35;;
45476;SDS011;31958;51.756;-2.556;2024-01-30T00:35:53;4.15;;;1.50;;
45476;SDS011;31958;51.756;-2.556;2024-01-30T00:38:18;4.05;;;1.38;;
45476;SDS011;31958;51.756;-2.556;2024-01-30T00:40:44;4.00;;;1.27;;
45476;SDS011;31958;51.756;-2.556;2024-01-30T00:43:09;2.05;;;1.10;;
45476;SDS011;31958;51.756;-2.556;2024-01-30T00:45:34;1.90;;;1.20;;
45476;SDS011;31958;51.756;-2.556;2024-01-30T00:48:00;4.03;;;1.30;;
45476;SDS011;31958;51.756;-2.556;2024-01-30T00:50:25;3.83;;;1.30;;
45476;SDS011;31958;51.756;-2.556;2024-01-30T00:52:50;2.65;;;1.15;;
45476;SDS011;31958;51.756;-2.556;2024-01-30T00:55:16;3.03;;;1.17;;
45476;SDS011;31958;51.756;-2.556;2024-01-30T00:57:41;4.40;;;1.00;;
45476;SDS011;31958;51.756;-2.556;2024-01-30T01:00:07;4.70;;;1.10;;
45476;SDS011;31958;51.756;-2.556;2024-01-30T01:02:34;6.07;;;1.02;;
45476;SDS011;31958;51.756;-2.556;2024-01-30T01:05:00;5.88;;;1.15;;
45476;SDS011;31958;51.756;-2.556;2024-01-30T01:07:25;3.60;;;0.90;;
45476;SDS011;31958;51.756;-2.556;2024-01-30T01:09:50;1.58;;;0.57;;
45476;SDS011;31958;51.756;-2.556;2024-01-30T01:12:16;1.67;;;0.70;;
45476;SDS011;31958;51.756;-2.556;2024-01-30T01:14:41;3.53;;;1.10;;
45476;SDS011;31958;51.756;-2.556;2024-01-30T01:17:07;1.58;;;0.82;;
45476;SDS011;31958;51.756;-2.556;2024-01-30T01:19:32;2.20;;;0.90;;
45476;SDS011;31958;51.756;-2.556;2024-01-30T01:21:57;2.10;;;1.00;;
45476;SDS011;31958;51.756;-2.556;2024-01-30T01:24:23;2.58;;;0.85;;
45476;SDS011;31958;51.756;-2.556;2024-01-30T01:26:48;3.85;;;0.73;;
45476;SDS011;31958;51.756;-2.556;2024-01-30T01:29:13;2.05;;;0.80;;
45476;SDS011;31958;51.756;-2.556;2024-01-30T01:31:40;3.80;;;0.95;;
45476;SDS011;31958;51.756;-2.556;2024-01-30T01:34:11;2.80;;;0.90;;
45476;SDS011;31958;51.756;-2.556;2024-01-30T01:36:37;2.95;;;1.20;;
45476;SDS011;31958;51.756;-2.556;2024-01-30T01:39:03;2.80;;;0.93;;
45476;SDS011;31958;51.756;-2.556;2024-01-30T01:41:32;3.10;;;0.80;;
45476;SDS011;31958;51.756;-2.556;2024-01-30T01:43:58;2.67;;;0.82;;
45476;SDS011;31958;51.756;-2.556;2024-01-30T01:46:26;3.58;;;1.10;;
45476;SDS011;31958;51.756;-2.556;2024-01-30T01:48:51;2.85;;;1.35;;
45476;SDS011;31958;51.756;-2.556;2024-01-30T01:51:17;8.50;;;1.52;;
45476;SDS011;31958;51.756;-2.556;2024-01-30T01:53:42;6.13;;;1.67;;
45476;SDS011;31958;51.756;-2.556;2024-01-30T01:56:08;6.13;;;1.67;;
45476;SDS011;31958;51.756;-2.556;2024-01-30T01:58:33;4.22;;;1.85;;
45476;SDS011;31958;51.756;-2.556;2024-01-30T02:00:59;6.93;;;1.75;;
45476;SDS011;31958;51.756;-2.556;2024-01-30T02:03:24;13.40;;;2.20;;
45476;SDS011;31958;51.756;-2.556;2024-01-30T02:05:52;6.93;;;1.55;;
45476;SDS011;31958;51.756;-2.556;2024-01-30T02:08:18;3.92;;;1.70;;
45476;SDS011;31958;51.756;-2.556;2024-01-30T02:10:44;2.60;;;0.98;;
45476;SDS011;31958;51.756;-2.556;2024-01-30T02:13:09;3.05;;;1.38;;
45476;SDS011;31958;51.756;-2.556;2024-01-30T02:15:34;4.38;;;1.70;;
45476;SDS011;31958;51.756;-2.556;2024-01-30T02:18:00;4.28;;;1.50;;
45476;SDS011;31958;51.756;-2.556;2024-01-30T02:20:25;4.00;;;1.58;;
45476;SDS011;31958;51.756;-2.556;2024-01-30T02:22:54;7.22;;;1.48;;
45476;SDS011;31958;51.756;-2.556;2024-01-30T02:25:19;1.63;;;0.88;;
45476;SDS011;31958;51.756;-2.556;2024-01-30T02:27:45;2.00;;;1.00;;
45476;SDS011;31958;51.756;-2.556;2024-01-30T02:30:10;1.83;;;0.80;;
45476;SDS011;31958;51.756;-2.556;2024-01-30T02:32:36;1.45;;;0.82;;
45476;SDS011;31958;51.756;-2.556;2024-01-30T02:35:01;1.40;;;0.57;;
45476;SDS011;31958;51.756;-2.556;2024-01-30T02:37:27;1.60;;;0.73;;
45476;SDS011;31958;51.756;-2.556;2024-01-30T02:39:52;1.17;;;0.63;;
45476;SDS011;31958;51.756;-2.556;2024-01-30T02:42:18;1.00;;;0.60;;
45476;SDS011;31958;51.756;-2.556;2024-01-30T02:44:43;1.08;;;0.30;;
45476;SDS011;31958;51.756;-2.556;2024-01-30T02:47:08;0.57;;;0.40;;
45476;SDS011;31958;51.756;-2.556;2024-01-30T02:49:34;0.40;;;0.38;;
45476;SDS011;31958;51.756;-2.556;2024-01-30T02:51:59;3.70;;;0.20;;
45476;SDS011;31958;51.756;-2.556;2024-01-30T02:54:24;0.98;;;0.50;;
45476;SDS011;31958;51.756;-2.556;2024-01-30T02:56:49;0.60;;;0.40;;
45476;SDS011;31958;51.756;-2.556;2024-01-30T02:59:15;0.73;;;0.43;;
45476;SDS011;31958;51.756;-2.556;2024-01-30T03:01:43;0.95;;;0.50;;
45476;SDS011;31958;51.756;-2.556;2024-01-30T03:04:09;1.38;;;0.50;;
45476;SDS011;31958;51.756;-2.556;2024-01-30T03:06:35;3.03;;;0.65;;
45476;SDS011;31958;51.756;-2.556;2024-01-30T03:09:00;0.77;;;0.52;;
45476;SDS011;31958;51.756;-2.556;2024-01-30T03:11:25;1.10;;;0.45;;
45476;SDS011;31958;51.756;-2.556;2024-01-30T03:13:51;2.35;;;0.80;;
45476;SDS011;31958;51.756;-2.556;2024-01-30T03:16:16;2.03;;;0.68;;
45476;SDS011;31958;51.756;-2.556;2024-01-30T03:18:41;1.17;;;0.57;;
45476;SDS011;31958;51.756;-2.556;2024-01-30T03:21:07;1.30;;;0.63;;
45476;SDS011;31958;51.756;-2.556;2024-01-30T03:23:32;0.82;;;0.60;;
45476;SDS011;31958;51.756;-2.556;2024-01-30T03:25:57;1.98;;;0.82;;
45476;SDS011;31958;51.756;-2.556;2024-01-30T03:28:23;2.85;;;0.80;;
45476;SDS011;31958;51.756;-2.556;2024-01-30T03:30:49;2.50;;;0.82;;
45476;SDS011;31958;51.756;-2.556;2024-01-30T03:33:14;1.33;;;0.52;;
45476;SDS011;31958;51.756;-2.556;2024-01-30T03:35:39;1.35;;;0.50;;
45476;SDS011;31958;51.756;-2.556;2024-01-30T03:38:05;0.82;;;0.30;;
45476;SDS011;31958;51.756;-2.556;2024-01-30T03:40:30;0.70;;;0.43;;
45476;SDS011;31958;51.756;-2.556;2024-01-30T03:42:55;0.50;;;0.40;;
45476;SDS011;31958;51.756;-2.556;2024-01-30T03:45:21;0.28;;;0.20;;
45476;SDS011;31958;51.756;-2.556;2024-01-30T03:47:46;1.58;;;0.30;;
45476;SDS011;31958;51.756;-2.556;2024-01-30T03:50:11;0.88;;;0.40;;
45476;SDS011;31958;51.756;-2.556;2024-01-30T03:52:37;1.50;;;0.40;;
45476;SDS011;31958;51.756;-2.556;2024-01-30T03:55:02;2.67;;;0.50;;
45476;SDS011;31958;51.756;-2.556;2024-01-30T03:57:27;0.88;;;0.45;;
45476;SDS011;31958;51.756;-2.556;2024-01-30T03:59:53;0.70;;;0.50;;
45476;SDS011;31958;51.756;-2.556;2024-01-30T04:02:19;0.63;;;0.35;;
45476;SDS011;31958;51.756;-2.556;2024-01-30T04:04:44;1.15;;;0.50;;
45476;SDS011;31958;51.756;-2.556;2024-01-30T04:07:09;0.52;;;0.52;;
45476;SDS011;31958;51.756;-2.556;2024-01-30T04:09:35;1.27;;;0.40;;
45476;SDS011;31958;51.756;-2.556;2024-01-30T04:12:00;1.95;;;0.70;;
45476;SDS011;31958;51.756;-2.556;2024-01-30T04:14:27;1.50;;;0.80;;
45476;SDS011;31958;51.756;-2.556;2024-01-30T04:16:53;1.58;;;0.55;;
45476;SDS011;31958;51.756;-2.556;2024-01-30T04:19:18;1.50;;;0.68;;
45476;SDS011;31958;51.756;-2.556;2024-01-30T04:21:44;2.92;;;0.63;;
45476;SDS011;31958;51.756;-2.556;2024-01-30T04:24:09;2.35;;;0.55;;
45476;SDS011;31958;51.756;-2.556;2024-01-30T04:26:34;0.85;;;0.30;;
45476;SDS011;31958;51.756;-2.556;2024-01-30T04:29:01;1.80;;;0.57;;
45476;SDS011;31958;51.756;-2.556;2024-01-30T04:31:26;0.20;;;0.20;;
45476;SDS011;31958;51.756;-2.556;2024-01-30T04:33:52;1.48;;;0.40;;
45476;SDS011;31958;51.756;-2.556;2024-01-30T04:36:17;3.70;;;0.30;;
45476;SDS011;31958;51.756;-2.556;2024-01-30T04:38:42;1.33;;;0.50;;
45476;SDS011;31958;51.756;-2.556;2024-01-30T04:41:08;1.02;;;0.43;;
45476;SDS011;31958;51.756;-2.556;2024-01-30T04:43:33;1.02;;;0.47;;
45476;SDS011;31958;51.756;-2.556;2024-01-30T04:45:58;0.60;;;0.40;;
45476;SDS011;31958;51.756;-2.556;2024-01-30T04:48:24;1.35;;;0.40;;
45476;SDS011;31958;51.756;-2.556;2024-01-30T04:50:49;0.93;;;0.70;;
45476;SDS011;31958;51.756;-2.556;2024-01-30T04:53:14;2.83;;;0.45;;
45476;SDS011;31958;51.756;-2.556;2024-01-30T04:55:40;1.27;;;0.40;;
45476;SDS011;31958;51.756;-2.556;2024-01-30T04:58:05;0.32;;;0.20;;
45476;SDS011;31958;51.756;-2.556;2024-01-30T05:00:30;2.33;;;0.40;;
45476;SDS011;31958;51.756;-2.556;2024-01-30T05:02:56;1.70;;;0.50;;
45476;SDS011;31958;51.756;-2.556;2024-01-30T05:05:21;4.03;;;0.50;;
45476;SDS011;31958;51.756;-2.556;2024-01-30T05:07:47;0.47;;;0.30;;
45476;SDS011;31958;51.756;-2.556;2024-01-30T05:10:12;4.55;;;0.50;;
45476;SDS011;31958;51.756;-2.556;2024-01-30T05:12:38;1.27;;;0.40;;
45476;SDS011;31958;51.756;-2.556;2024-01-30T05:15:04;1.70;;;1.05;;
45476;SDS011;31958;51.756;-2.556;2024-01-30T05:17:29;0.68;;;0.40;;
45476;SDS011;31958;51.756;-2.556;2024-01-30T05:19:55;1.88;;;0.77;;
45476;SDS011;31958;51.756;-2.556;2024-01-30T05:22:20;1.20;;;0.55;;
45476;SDS011;31958;51.756;-2.556;2024-01-30T05:24:45;2.45;;;0.63;;
45476;SDS011;31958;51.756;-2.556;2024-01-30T05:27:11;3.60;;;0.70;;
45476;SDS011;31958;51.756;-2.556;2024-01-30T05:29:38;1.20;;;0.75;;
45476;SDS011;31958;51.756;-2.556;2024-01-30T05:32:04;3.38;;;1.10;;
45476;SDS011;31958;51.756;-2.556;2024-01-30T05:34:30;3.35;;;0.93;;
45476;SDS011;31958;51.756;-2.556;2024-01-30T05:36:56;1.33;;;0.60;;
45476;SDS011;31958;51.756;-2.556;2024-01-30T05:39:21;3.55;;;0.60;;
45476;SDS011;31958;51.756;-2.556;2024-01-30T05:41:46;5.60;;;0.70;;
45476;SDS011;31958;51.756;-2.556;2024-01-30T05:44:12;1.10;;;0.57;;
45476;SDS011;31958;51.756;-2.556;2024-01-30T05:46:37;0.50;;;0.50;;
45476;SDS011;31958;51.756;-2.556;2024-01-30T05:49:02;2.50;;;0.88;;
45476;SDS011;31958;51.756;-2.556;2024-01-30T05:51:28;2.20;;;0.50;;
45476;SDS011;31958;51.756;-2.556;2024-01-30T05:53:53;2.70;;;0.80;;
45476;SDS011;31958;51.756;-2.556;2024-01-30T05:56:19;2.15;;;0.85;;
45476;SDS011;31958;51.756;-2.556;2024-01-30T05:58:44;1.63;;;0.57;;
45476;SDS011;31958;51.756;-2.556;2024-01-30T06:01:09;1.05;;;0.60;;
45476;SDS011;31958;51.756;-2.556;2024-01-30T06:03:35;3.65;;;0.60;;
45476;SDS011;31958;51.756;-2.556;2024-01-30T06:06:01;5.07;;;0.57;;
45476;SDS011;31958;51.756;-2.556;2024-01-30T06:08:26;1.30;;;0.47;;
45476;SDS011;31958;51.756;-2.556;2024-01-30T06:10:51;0.80;;;0.50;;
45476;SDS011;31958;51.756;-2.556;2024-01-30T06:13:17;2.90;;;0.50;;
45476;SDS011;31958;51.756;-2.556;2024-01-30T06:15:42;2.00;;;0.47;;
45476;SDS011;31958;51.756;-2.556;2024-01-30T06:18:07;0.82;;;0.30;;
45476;SDS011;31958;51.756;-2.556;2024-01-30T06:20:34;5.50;;;0.98;;
45476;SDS011;31958;51.756;-2.556;2024-01-30T06:23:00;0.77;;;0.30;;
45476;SDS011;31958;51.756;-2.556;2024-01-30T06:25:25;1.30;;;0.60;;
45476;SDS011;31958;51.756;-2.556;2024-01-30T06:27:51;5.05;;;0.90;;
45476;SDS011;31958;51.756;-2.556;2024-01-30T06:30:16;1.40;;;0.85;;
45476;SDS011;31958;51.756;-2.556;2024-01-30T06:32:41;2.83;;;0.70;;
45476;SDS011;31958;51.756;-2.556;2024-01-30T06:35:07;0.70;;;0.40;;
45476;SDS011;31958;51.756;-2.556;2024-01-30T06:37:33;0.73;;;0.40;;
45476;SDS011;31958;51.756;-2.556;2024-01-30T06:39:58;0.73;;;0.50;;
45476;SDS011;31958;51.756;-2.556;2024-01-30T06:42:24;1.63;;;0.43;;
45476;SDS011;31958;51.756;-2.556;2024-01-30T06:44:49;0.75;;;0.43;;
45476;SDS011;31958;51.756;-2.556;2024-01-30T06:47:14;0.73;;;0.38;;
45476;SDS011;31958;51.756;-2.556;2024-01-30T06:49:40;0.50;;;0.30;;
45476;SDS011;31958;51.756;-2.556;2024-01-30T06:52:07;2.28;;;0.70;;
45476;SDS011;31958;51.756;-2.556;2024-01-30T06:54:32;4.28;;;0.60;;
45476;SDS011;31958;51.756;-2.556;2024-01-30T06:56:58;3.20;;;0.40;;
45476;SDS011;31958;51.756;-2.556;2024-01-30T06:59:24;0.43;;;0.30;;
45476;SDS011;31958;51.756;-2.556;2024-01-30T07:01:49;0.32;;;0.28;;
45476;SDS011;31958;51.756;-2.556;2024-01-30T07:04:14;1.08;;;0.47;;
45476;SDS011;31958;51.756;-2.556;2024-01-30T07:06:40;3.08;;;0.93;;
45476;SDS011;31958;51.756;-2.556;2024-01-30T07:09:06;3.35;;;0.30;;
45476;SDS011;31958;51.756;-2.556;2024-01-30T07:11:31;1.75;;;0.77;;
45476;SDS011;31958;51.756;-2.556;2024-01-30T07:13:57;0.68;;;0.40;;
45476;SDS011;31958;51.756;-2.556;2024-01-30T07:16:22;1.55;;;0.50;;
45476;SDS011;31958;51.756;-2.556;2024-01-30T07:18:48;1.83;;;0.55;;
45476;SDS011;31958;51.756;-2.556;2024-01-30T07:21:14;4.75;;;0.55;;
45476;SDS011;31958;51.756;-2.556;2024-01-30T07:23:40;2.10;;;0.60;;
45476;SDS011;31958;51.756;-2.556;2024-01-30T07:26:07;0.70;;;0.40;;
45476;SDS011;31958;51.756;-2.556;2024-01-30T07:28:33;3.10;;;0.52;;
45476;SDS011;31958;51.756;-2.556;2024-01-30T07:30:59;2.22;;;0.40;;
45476;SDS011;31958;51.756;-2.556;2024-01-30T07:33:24;0.77;;;0.45;;
45476;SDS011;31958;51.756;-2.556;2024-01-30T07:35:51;0.93;;;0.50;;
45476;SDS011;31958;51.756;-2.556;2024-01-30T07:38:17;5.63;;;0.70;;
45476;SDS011;31958;51.756;-2.556;2024-01-30T07:40:42;1.95;;;0.63;;
45476;SDS011;31958;51.756;-2.556;2024-01-30T07:43:08;2.70;;;0.75;;
45476;SDS011;31958;51.756;-2.556;2024-01-30T07:45:34;2.17;;;0.80;;
45476;SDS011;31958;51.756;-2.556;2024-01-30T07:47:59;3.78;;;0.50;;
45476;SDS011;31958;51.756;-2.556;2024-01-30T07:50:25;1.45;;;0.50;;
45476;SDS011;31958;51.756;-2.556;2024-01-30T07:52:50;7.05;;;0.70;;
45476;SDS011;31958;51.756;-2.556;2024-01-30T07:55:19;1.40;;;0.45;;
45476;SDS011;31958;51.756;-2.556;2024-01-30T07:57:45;0.65;;;0.40;;
45476;SDS011;31958;51.756;-2.556;2024-01-30T08:00:11;1.08;;;0.35;;
45476;SDS011;31958;51.756;-2.556;2024-01-30T08:02:37;0.73;;;0.43;;
45476;SDS011;31958;51.756;-2.556;2024-01-30T08:05:02;2.90;;;0.57;;
45476;SDS011;31958;51.756;-2.556;2024-01-30T08:07:28;1.05;;;0.52;;
45476;SDS011;31958;51.756;-2.556;2024-01-30T08:09:54;0.30;;;0.30;;
45476;SDS011;31958;51.756;-2.556;2024-01-30T08:12:20;0.82;;;0.38;;
45476;SDS011;31958;51.756;-2.556;2024-01-30T08:14:45;0.68;;;0.38;;
45476;SDS011;31958;51.756;-2.556;2024-01-30T08:17:10;1.70;;;0.50;;
45476;SDS011;31958;51.756;-2.556;2024-01-30T08:19:36;2.20;;;0.50;;
45476;SDS011;31958;51.756;-2.556;2024-01-30T08:22:01;1.35;;;0.75;;
45476;SDS011;31958;51.756;-2.556;2024-01-30T08:24:26;2.05;;;0.40;;
45476;SDS011;31958;51.756;-2.556;2024-01-30T08:26:52;4.75;;;0.50;;
45476;SDS011;31958;51.756;-2.556;2024-01-30T08:29:17;4.75;;;0.52;;
45476;SDS011;31958;51.756;-2.556;2024-01-30T08:31:42;6.45;;;0.50;;
45476;SDS011;31958;51.756;-2.556;2024-01-30T08:34:09;0.43;;;0.28;;
45476;SDS011;31958;51.756;-2.556;2024-01-30T08:36:34;0.82;;;0.40;;
45476;SDS011;31958;51.756;-2.556;2024-01-30T08:38:59;2.42;;;0.70;;
45476;SDS011;31958;51.756;-2.556;2024-01-30T08:41:25;1.02;;;0.50;;
45476;SDS011;31958;51.756;-2.556;2024-01-30T08:43:51;1.05;;;0.50;;
45476;SDS011;31958;51.756;-2.556;2024-01-30T08:46:17;1.23;;;0.50;;
45476;SDS011;31958;51.756;-2.556;2024-01-30T08:48:46;0.68;;;0.40;;
45476;SDS011;31958;51.756;-2.556;2024-01-30T08:51:11;1.83;;;0.45;;
45476;SDS011;31958;51.756;-2.556;2024-01-30T08:53:37;0.30;;;0.30;;
45476;SDS011;31958;51.756;-2.556;2024-01-30T08:56:03;0.80;;;0.47;;
45476;SDS011;31958;51.756;-2.556;2024-01-30T08:58:29;0.68;;;0.50;;
45476;SDS011;31958;51.756;-2.556;2024-01-30T09:00:54;0.40;;;0.40;;
45476;SDS011;31958;51.756;-2.556;2024-01-30T09:03:20;2.55;;;0.55;;
45476;SDS011;31958;51.756;-2.556;2024-01-30T09:05:45;1.52;;;0.30;;
45476;SDS011;31958;51.756;-2.556;2024-01-30T09:08:10;3.63;;;0.40;;
45476;SDS011;31958;51.756;-2.556;2024-01-30T09:10:35;0.45;;;0.30;;
45476;SDS011;31958;51.756;-2.556;2024-01-30T09:13:02;0.25;;;0.20;;
45476;SDS011;31958;51.756;-2.556;2024-01-30T09:15:28;1.52;;;0.43;;
45476;SDS011;31958;51.756;-2.556;2024-01-30T09:17:53;0.75;;;0.38;;
45476;SDS011;31958;51.756;-2.556;2024-01-30T09:20:19;0.38;;;0.28;;
45476;SDS011;31958;51.756;-2.556;2024-01-30T09:22:45;6.72;;;0.70;;
45476;SDS011;31958;51.756;-2.556;2024-01-30T09:25:10;2.40;;;0.45;;
45476;SDS011;31958;51.756;-2.556;2024-01-30T09:27:36;0.35;;;0.28;;
45476;SDS011;31958;51.756;-2.556;2024-01-30T09:30:01;0.43;;;0.30;;
45476;SDS011;31958;51.756;-2.556;2024-01-30T09:32:26;2.60;;;0.40;;
45476;SDS011;31958;51.756;-2.556;2024-01-30T09:34:52;0.60;;;0.28;;
45476;SDS011;31958;51.756;-2.556;2024-01-30T09:37:17;2.38;;;0.40;;
45476;SDS011;31958;51.756;-2.556;2024-01-30T09:39:43;1.00;;;0.35;;
45476;SDS011;31958;51.756;-2.556;2024-01-30T09:42:26;1.80;;;0.30;;
45476;SDS011;31958;51.756;-2.556;2024-01-30T09:44:53;1.95;;;0.40;;
45476;SDS011;31958;51.756;-2.556;2024-01-30T09:47:19;0.55;;;0.40;;
45476;SDS011;31958;51.756;-2.556;2024-01-30T09:49:45;3.05;;;0.52;;
45476;SDS011;31958;51.756;-2.556;2024-01-30T09:52:11;0.90;;;0.50;;
45476;SDS011;31958;51.756;-2.556;2024-01-30T09:54:36;0.25;;;0.25;;
45476;SDS011;31958;51.756;-2.556;2024-01-30T09:57:03;1.35;;;0.68;;
45476;SDS011;31958;51.756;-2.556;2024-01-30T09:59:29;0.30;;;0.30;;
45476;SDS011;31958;51.756;-2.556;2024-01-30T10:01:55;0.38;;;0.30;;
45476;SDS011;31958;51.756;-2.556;2024-01-30T10:04:21;0.60;;;0.40;;
45476;SDS011;31958;51.756;-2.556;2024-01-30T10:06:47;1.52;;;0.47;;
45476;SDS011;31958;51.756;-2.556;2024-01-30T10:09:12;1.75;;;0.40;;
45476;SDS011;31958;51.756;-2.556;2024-01-30T10:11:38;1.00;;;0.50;;
45476;SDS011;31958;51.756;-2.556;2024-01-30T10:14:04;1.23;;;0.25;;
45476;SDS011;31958;51.756;-2.556;2024-01-30T10:16:29;0.43;;;0.30;;
45476;SDS011;31958;51.756;-2.556;2024-01-30T10:18:55;0.30;;;0.30;;
45476;SDS011;31958;51.756;-2.556;2024-01-30T10:21:20;0.55;;;0.30;;
45476;SDS011;31958;51.756;-2.556;2024-01-30T10:23:46;1.27;;;0.30;;
45476;SDS011;31958;51.756;-2.556;2024-01-30T10:26:11;0.32;;;0.30;;
45476;SDS011;31958;51.756;-2.556;2024-01-30T10:28:36;0.55;;;0.32;;
45476;SDS011;31958;51.756;-2.556;2024-01-30T10:31:02;0.20;;;0.20;;
45476;SDS011;31958;51.756;-2.556;2024-01-30T10:33:30;1.08;;;0.38;;
45476;SDS011;31958;51.756;-2.556;2024-01-30T10:36:02;0.43;;;0.20;;
45476;SDS011;31958;51.756;-2.556;2024-01-30T10:38:29;0.28;;;0.28;;
45476;SDS011;31958;51.756;-2.556;2024-01-30T10:40:59;1.40;;;0.40;;
45476;SDS011;31958;51.756;-2.556;2024-01-30T10:43:35;0.88;;;0.40;;
45476;SDS011;31958;51.756;-2.556;2024-01-30T10:46:06;0.20;;;0.20;;
45476;SDS011;31958;51.756;-2.556;2024-01-30T10:48:37;0.30;;;0.30;;
45476;SDS011;31958;51.756;-2.556;2024-01-30T10:51:08;0.65;;;0.40;;
45476;SDS011;31958;51.756;-2.556;2024-01-30T10:53:34;0.20;;;0.20;;
45476;SDS011;31958;51.756;-2.556;2024-01-30T10:56:00;0.22;;;0.22;;
45476;SDS011;31958;51.756;-2.556;2024-01-30T10:58:26;0.30;;;0.30;;
45476;SDS011;31958;51.756;-2.556;2024-01-30T11:00:52;0.85;;;0.55;;
45476;SDS011;31958;51.756;-2.556;2024-01-30T11:03:18;0.57;;;0.35;;
45476;SDS011;31958;51.756;-2.556;2024-01-30T11:05:43;0.30;;;0.30;;
45476;SDS011;31958;51.756;-2.556;2024-01-30T11:08:14;3.45;;;0.40;;
45476;SDS011;31958;51.756;-2.556;2024-01-30T11:10:46;0.35;;;0.30;;
45476;SDS011;31958;51.756;-2.556;2024-01-30T11:13:13;0.73;;;0.40;;
45476;SDS011;31958;51.756;-2.556;2024-01-30T11:15:39;0.30;;;0.30;;
45476;SDS011;31958;51.756;-2.556;2024-01-30T11:18:05;1.80;;;0.35;;
45476;SDS011;31958;51.756;-2.556;2024-01-30T11:20:31;0.22;;;0.22;;
45476;SDS011;31958;51.756;-2.556;2024-01-30T11:22:57;0.52;;;0.30;;
45476;SDS011;31958;51.756;-2.556;2024-01-30T11:25:23;0.22;;;0.22;;
45476;SDS011;31958;51.756;-2.556;2024-01-30T11:27:49;0.47;;;0.30;;
45476;SDS011;31958;51.756;-2.556;2024-01-30T11:30:25;0.20;;;0.20;;
45476;SDS011;31958;51.756;-2.556;2024-01-30T11:35:55;0.30;;;0.30;;
45476;SDS011;31958;51.756;-2.556;2024-01-30T11:38:22;0.60;;;0.30;;
45476;SDS011;31958;51.756;-2.556;2024-01-30T11:40:48;0.52;;;0.30;;
45476;SDS011;31958;51.756;-2.556;2024-01-30T11:43:13;0.38;;;0.30;;
45476;SDS011;31958;51.756;-2.556;2024-01-30T11:45:39;0.20;;;0.20;;
45476;SDS011;31958;51.756;-2.556;2024-01-30T11:48:04;0.20;;;0.20;;
45476;SDS011;31958;51.756;-2.556;2024-01-30T11:50:30;0.20;;;0.20;;
45476;SDS011;31958;51.756;-2.556;2024-01-30T11:52:59;0.43;;;0.30;;
45476;SDS011;31958;51.756;-2.556;2024-01-30T11:55:24;0.95;;;0.32;;
45476;SDS011;31958;51.756;-2.556;2024-01-30T11:57:50;0.30;;;0.30;;
45476;SDS011;31958;51.756;-2.556;2024-01-30T12:00:16;0.30;;;0.30;;
45476;SDS011;31958;51.756;-2.556;2024-01-30T12:02:43;0.20;;;0.20;;
45476;SDS011;31958;51.756;-2.556;2024-01-30T12:05:09;0.30;;;0.30;;
45476;SDS011;31958;51.756;-2.556;2024-01-30T12:07:35;0.85;;;0.52;;
45476;SDS011;31958;51.756;-2.556;2024-01-30T12:10:00;0.50;;;0.50;;
45476;SDS011;31958;51.756;-2.556;2024-01-30T12:12:26;0.30;;;0.30;;
45476;SDS011;31958;51.756;-2.556;2024-01-30T12:14:53;0.30;;;0.30;;
45476;SDS011;31958;51.756;-2.556;2024-01-30T12:17:31;0.40;;;0.30;;
45476;SDS011;31958;51.756;-2.556;2024-01-30T12:20:07;0.20;;;0.20;;
45476;SDS011;31958;51.756;-2.556;2024-01-30T12:22:41;0.52;;;0.25;;
45476;SDS011;31958;51.756;-2.556;2024-01-30T12:25:08;3.53;;;0.45;;
45476;SDS011;31958;51.756;-2.556;2024-01-30T12:27:37;0.35;;;0.30;;
45476;SDS011;31958;51.756;-2.556;2024-01-30T12:30:07;0.45;;;0.30;;
45476;SDS011;31958;51.756;-2.556;2024-01-30T12:32:36;2.50;;;0.40;;
45476;SDS011;31958;51.756;-2.556;2024-01-30T12:35:02;0.30;;;0.28;;
45476;SDS011;31958;51.756;-2.556;2024-01-30T12:37:31;0.85;;;0.43;;
45476;SDS011;31958;51.756;-2.556;2024-01-30T12:39:56;0.52;;;0.47;;
45476;SDS011;31958;51.756;-2.556;2024-01-30T12:42:22;0.30;;;0.30;;
45476;SDS011;31958;51.756;-2.556;2024-01-30T12:44:48;0.30;;;0.30;;
45476;SDS011;31958;51.756;-2.556;2024-01-30T12:47:15;0.40;;;0.40;;
45476;SDS011;31958;51.756;-2.556;2024-01-30T12:49:42;1.33;;;0.40;;
45476;SDS011;31958;51.756;-2.556;2024-01-30T12:52:09;0.60;;;0.40;;
45476;SDS011;31958;51.756;-2.556;2024-01-30T12:54:35;0.73;;;0.35;;
45476;SDS011;31958;51.756;-2.556;2024-01-30T12:57:01;0.30;;;0.30;;
45476;SDS011;31958;51.756;-2.556;2024-01-30T12:59:26;0.35;;;0.32;;
45476;SDS011;31958;51.756;-2.556;2024-01-30T13:01:51;0.60;;;0.30;;
45476;SDS011;31958;51.756;-2.556;2024-01-30T13:04:17;0.38;;;0.35;;
45476;SDS011;31958;51.756;-2.556;2024-01-30T13:06:42;0.90;;;0.40;;
45476;SDS011;31958;51.756;-2.556;2024-01-30T13:09:07;0.75;;;0.40;;
45476;SDS011;31958;51.756;-2.556;2024-01-30T13:11:33;0.30;;;0.30;;
45476;SDS011;31958;51.756;-2.556;2024-01-30T13:13:59;3.90;;;0.50;;
45476;SDS011;31958;51.756;-2.556;2024-01-30T13:16:25;0.65;;;0.30;;
45476;SDS011;31958;51.756;-2.556;2024-01-30T13:18:50;0.55;;;0.35;;
45476;SDS011;31958;51.756;-2.556;2024-01-30T13:21:16;1.15;;;0.47;;
45476;SDS011;31958;51.756;-2.556;2024-01-30T13:23:42;0.85;;;0.40;;
45476;SDS011;31958;51.756;-2.556;2024-01-30T13:26:08;1.83;;;0.55;;
45476;SDS011;31958;51.756;-2.556;2024-01-30T13:28:33;1.05;;;0.50;;
45476;SDS011;31958;51.756;-2.556;2024-01-30T13:30:58;1.83;;;0.77;;
45476;SDS011;31958;51.756;-2.556;2024-01-30T13:33:24;2.22;;;1.20;;
45476;SDS011;31958;51.756;-2.556;2024-01-30T13:35:49;1.50;;;0.82;;
45476;SDS011;31958;51.756;-2.556;2024-01-30T13:38:14;1.55;;;0.80;;
45476;SDS011;31958;51.756;-2.556;2024-01-30T13:40:40;2.35;;;0.90;;
45476;SDS011;31958;51.756;-2.556;2024-01-30T13:43:06;2.53;;;1.30;;
45476;SDS011;31958;51.756;-2.556;2024-01-30T13:45:31;2.75;;;1.02;;
45476;SDS011;31958;51.756;-2.556;2024-01-30T13:47:57;2.15;;;0.90;;
45476;SDS011;31958;51.756;-2.556;2024-01-30T13:50:22;2.50;;;1.00;;
45476;SDS011;31958;51.756;-2.556;2024-01-30T13:52:48;1.95;;;1.00;;
45476;SDS011;31958;51.756;-2.556;2024-01-30T13:55:13;2.78;;;1.30;;
45476;SDS011;31958;51.756;-2.556;2024-01-30T13:57:38;9.38;;;1.45;;
45476;SDS011;31958;51.756;-2.556;2024-01-30T14:00:04;3.10;;;1.50;;
45476;SDS011;31958;51.756;-2.556;2024-01-30T14:02:32;4.18;;;1.60;;
45476;SDS011;31958;51.756;-2.556;2024-01-30T14:04:58;6.40;;;1.67;;
45476;SDS011;31958;51.756;-2.556;2024-01-30T14:07:23;3.83;;;1.75;;
45476;SDS011;31958;51.756;-2.556;2024-01-30T14:09:49;3.65;;;1.75;;
45476;SDS011;31958;51.756;-2.556;2024-01-30T14:12:14;2.88;;;1.40;;
45476;SDS011;31958;51.756;-2.556;2024-01-30T14:14:40;3.03;;;1.30;;
45476;SDS011;31958;51.756;-2.556;2024-01-30T14:17:05;3.33;;;1.30;;
45476;SDS011;31958;51.756;-2.556;2024-01-30T14:19:32;3.20;;;1.40;;
45476;SDS011;31958;51.756;-2.556;2024-01-30T14:21:58;4.40;;;1.33;;
45476;SDS011;31958;51.756;-2.556;2024-01-30T14:24:23;2.95;;;1.20;;
45476;SDS011;31958;51.756;-2.556;2024-01-30T14:26:48;2.75;;;1.10;;
45476;SDS011;31958;51.756;-2.556;2024-01-30T14:29:14;3.47;;;1.48;;